LIBN/LCC METAR and TAF weather

Enter ICAO airport designator
Station Type Date Time Source
LIBN METAR 2022/08/13 10:55 UTC NOAA

LIBN 131055Z 24006KT 9999 FEW025TCU BKN035 26/22 Q1011


Station Type Date Time Source
LIBN Decoded METAR 2022/08/13 10:55 UTC NOAA

Lecce, Italy (LIBN) 40-14N 018-09E 61M
Aug 13, 2022 - 06:55 AM EDT / 2022.08.13 1055 UTC
Wind: from the WSW (240 degrees) at 7 MPH (6 KT):0
Visibility: greater than 7 mile(s):0
Sky conditions: mostly cloudy
Weather: Towering cumulus clouds observed
Temperature: 78 F (26 C)
Dew Point: 71 F (22 C)
Relative Humidity: 78%
Pressure (altimeter): 29.85 in. Hg (1011 hPa)
ob: LIBN 131055Z 24006KT 9999 FEW025TCU BKN035 26/22 Q1011
cycle: 11

Station Type Date Time Source
LIBN TAF 2022/06/03 12:39 UTC NOAA

TAF TAF LIBN 031100Z 0312/0324 36012KT CAVOK

Example: see airport list